createdAt,value
2018-07-12T00:00:35.267Z,21.37
2018-07-12T00:03:02.607Z,19.07
2018-07-12T00:05:29.923Z,16.90
2018-07-12T00:07:57.269Z,18.30
2018-07-12T00:10:24.591Z,19.50
2018-07-12T00:12:51.937Z,19.20
2018-07-12T00:15:19.255Z,16.83
2018-07-12T00:17:46.596Z,21.07
2018-07-12T00:20:13.920Z,17.20
2018-07-12T00:22:41.619Z,21.37
2018-07-12T00:25:09.040Z,16.80
2018-07-12T00:27:36.429Z,22.90
2018-07-12T00:30:03.756Z,21.20
2018-07-12T00:32:31.102Z,20.37
2018-07-12T00:34:58.423Z,24.30
2018-07-12T00:37:25.768Z,21.37
2018-07-12T00:39:53.099Z,21.17
2018-07-12T00:42:20.778Z,23.70
2018-07-12T00:44:48.186Z,21.03
2018-07-12T00:47:15.527Z,25.87
2018-07-12T00:49:42.847Z,37.00
2018-07-12T00:52:10.192Z,22.53
2018-07-12T00:54:37.516Z,22.60
2018-07-12T00:57:04.863Z,19.77
2018-07-12T00:59:32.184Z,18.30
2018-07-12T01:01:59.523Z,18.93
2018-07-12T01:04:26.864Z,17.90
2018-07-12T01:06:54.292Z,20.60
2018-07-12T01:09:21.607Z,16.93
2018-07-12T01:11:48.941Z,20.70
2018-07-12T01:14:16.260Z,17.23
2018-07-12T01:16:43.604Z,14.83
2018-07-12T01:19:10.923Z,15.80
2018-07-12T01:21:38.304Z,19.57
2018-07-12T01:24:05.811Z,15.30
2018-07-12T01:26:33.596Z,16.87
2018-07-12T01:29:00.940Z,15.40
2018-07-12T01:31:28.257Z,15.83
2018-07-12T01:33:56.072Z,22.83
2018-07-12T01:36:23.456Z,24.60
2018-07-12T01:38:50.825Z,20.47
2018-07-12T01:41:18.145Z,19.20
2018-07-12T01:43:45.484Z,16.73
2018-07-12T01:46:12.805Z,25.13
2018-07-12T01:48:40.157Z,22.43
2018-07-12T01:51:07.480Z,19.73
2018-07-12T01:53:34.817Z,20.33
2018-07-12T01:56:02.135Z,28.97
2018-07-12T01:58:29.474Z,27.13
2018-07-12T02:00:56.796Z,23.93
2018-07-12T02:03:24.140Z,36.07
2018-07-12T02:05:51.456Z,26.20
2018-07-12T02:08:18.795Z,27.97
2018-07-12T02:13:19.716Z,23.17
2018-07-12T02:15:47.032Z,22.63
2018-07-12T02:18:14.367Z,19.50
2018-07-12T02:20:41.680Z,26.30
2018-07-12T02:23:09.019Z,26.83
2018-07-12T02:25:36.332Z,26.60
2018-07-12T02:28:03.672Z,29.73
2018-07-12T02:30:30.992Z,28.57
2018-07-12T02:32:58.327Z,26.17
2018-07-12T02:35:25.648Z,30.27
2018-07-12T02:37:52.995Z,28.83
2018-07-12T02:40:20.313Z,33.10
2018-07-12T02:42:47.651Z,24.40
2018-07-12T02:45:14.969Z,26.77
2018-07-12T02:47:42.312Z,30.53
2018-07-12T02:50:09.639Z,30.47
2018-07-12T02:52:36.983Z,23.03
2018-07-12T02:55:04.307Z,21.57
2018-07-12T02:57:31.652Z,24.03
2018-07-12T02:59:58.971Z,27.37
2018-07-12T03:02:26.317Z,21.90
2018-07-12T03:04:53.636Z,24.30
2018-07-12T03:07:21.005Z,20.43
2018-07-12T03:09:48.329Z,25.57
2018-07-12T03:12:15.656Z,17.17
2018-07-12T03:14:42.998Z,20.90
2018-07-12T03:17:10.322Z,19.33
2018-07-12T03:19:37.660Z,17.97
2018-07-12T03:22:04.979Z,19.40
2018-07-12T03:24:32.341Z,21.73
2018-07-12T03:26:59.668Z,20.70
2018-07-12T03:29:27.017Z,30.03
2018-07-12T03:31:54.344Z,20.83
2018-07-12T03:34:21.683Z,18.20
2018-07-12T03:36:49.006Z,20.43
2018-07-12T03:39:16.350Z,20.10
2018-07-12T03:41:43.664Z,15.77
2018-07-12T03:44:14.835Z,16.87
2018-07-12T03:46:42.155Z,19.30
2018-07-12T03:49:09.499Z,15.63
2018-07-12T03:51:36.820Z,15.80
2018-07-12T03:54:04.176Z,16.73
2018-07-12T03:56:31.498Z,15.80
2018-07-12T03:58:58.843Z,14.63
2018-07-12T04:01:26.160Z,14.50
2018-07-12T04:03:53.500Z,13.70
2018-07-12T04:06:20.823Z,12.13
2018-07-12T04:08:48.169Z,18.77
2018-07-12T04:11:15.772Z,12.83
2018-07-12T04:13:43.091Z,14.40
2018-07-12T04:16:10.438Z,15.70
2018-07-12T04:18:37.767Z,15.23
2018-07-12T04:21:05.108Z,17.07
2018-07-12T04:23:32.436Z,11.80
2018-07-12T04:25:59.778Z,12.53
2018-07-12T04:28:27.095Z,13.03
2018-07-12T04:30:54.435Z,16.83
2018-07-12T04:33:21.753Z,11.97
2018-07-12T04:35:49.093Z,11.10
2018-07-12T04:38:16.412Z,12.17
2018-07-12T04:40:43.764Z,17.93
2018-07-12T04:43:11.088Z,14.50
2018-07-12T04:45:38.428Z,11.00
2018-07-12T04:48:05.744Z,18.83
2018-07-12T04:50:33.083Z,14.97
2018-07-12T04:53:00.399Z,19.90
2018-07-12T04:55:27.744Z,17.80
2018-07-12T04:57:55.055Z,13.80
2018-07-12T05:00:22.398Z,16.60
2018-07-12T05:02:49.726Z,15.27
2018-07-12T05:05:17.063Z,14.23
2018-07-12T05:07:44.384Z,19.60
2018-07-12T05:10:11.727Z,13.40
2018-07-12T05:12:39.052Z,12.20
2018-07-12T05:15:06.396Z,18.87
2018-07-12T05:17:33.712Z,15.23
2018-07-12T05:20:01.051Z,12.17
2018-07-12T05:22:28.370Z,11.37
2018-07-12T05:24:55.721Z,13.73
2018-07-12T05:27:23.040Z,12.00
2018-07-12T05:29:50.380Z,8.90
2018-07-12T05:32:18.046Z,9.23
2018-07-12T05:34:45.397Z,13.13
2018-07-12T05:37:13.822Z,15.07
2018-07-12T05:39:42.259Z,12.00
2018-07-12T05:42:10.692Z,13.13
2018-07-12T05:44:39.146Z,12.70
2018-07-12T05:47:07.585Z,12.80
2018-07-12T05:49:36.023Z,9.23
2018-07-12T05:52:04.488Z,9.87
2018-07-12T05:54:32.911Z,9.13
2018-07-12T05:57:01.367Z,7.73
2018-07-12T05:59:29.793Z,10.30
2018-07-12T06:02:09.498Z,8.20
2018-07-12T06:04:37.924Z,7.67
2018-07-12T06:07:06.419Z,6.30
2018-07-12T06:09:34.851Z,6.10
2018-07-12T06:12:03.340Z,11.17
2018-07-12T06:14:31.802Z,9.30
2018-07-12T06:17:00.272Z,11.37
2018-07-12T06:19:28.708Z,12.13
2018-07-12T06:21:57.191Z,12.33
2018-07-12T06:24:25.640Z,10.87
2018-07-12T06:26:54.682Z,10.20
2018-07-12T06:29:23.099Z,9.00
2018-07-12T06:31:51.573Z,8.90
2018-07-12T06:34:19.996Z,14.30
2018-07-12T06:36:48.499Z,6.37
2018-07-12T06:39:16.956Z,5.70
2018-07-12T06:41:45.404Z,7.30
2018-07-12T06:44:13.831Z,8.93
2018-07-12T06:46:42.267Z,6.27
2018-07-12T06:49:10.713Z,6.50
2018-07-12T06:51:39.165Z,6.13
2018-07-12T06:54:07.913Z,6.27
2018-07-12T06:56:36.363Z,7.83
2018-07-12T06:59:04.804Z,8.00
2018-07-12T07:01:34.044Z,7.30
2018-07-12T07:04:02.539Z,9.43
2018-07-12T07:06:31.092Z,7.47
2018-07-12T07:08:59.550Z,8.13
2018-07-12T07:11:28.017Z,6.70
2018-07-12T07:13:56.576Z,6.10
2018-07-12T07:16:25.040Z,8.13
2018-07-12T07:18:53.472Z,4.83
2018-07-12T07:21:21.961Z,5.70
2018-07-12T07:23:50.387Z,5.10
2018-07-12T07:26:18.900Z,4.90
2018-07-12T07:28:47.297Z,5.97
2018-07-12T07:31:15.731Z,5.53
2018-07-12T07:33:44.179Z,6.50
2018-07-12T07:36:12.615Z,5.40
2018-07-12T07:38:41.411Z,4.57
2018-07-12T07:41:09.839Z,5.67
2018-07-12T07:43:38.287Z,5.17
2018-07-12T07:46:06.776Z,4.77
2018-07-12T07:48:35.223Z,6.10
2018-07-12T07:51:03.683Z,5.30
2018-07-12T07:53:32.152Z,5.20
2018-07-12T07:56:00.584Z,4.77
2018-07-12T07:58:29.039Z,4.67
2018-07-12T08:00:57.475Z,3.93
2018-07-12T08:03:25.972Z,4.03
2018-07-12T08:05:54.488Z,2.97
2018-07-12T08:08:22.940Z,7.00
2018-07-12T08:10:51.376Z,4.37
2018-07-12T08:13:19.828Z,4.30
2018-07-12T08:15:48.251Z,2.83
2018-07-12T08:18:16.727Z,3.93
2018-07-12T08:20:45.164Z,4.23
2018-07-12T08:23:13.628Z,2.90
2018-07-12T08:25:42.059Z,2.70
2018-07-12T08:28:21.912Z,4.13
2018-07-12T08:30:50.371Z,4.37
2018-07-12T08:33:18.891Z,4.37
2018-07-12T08:35:47.444Z,3.43
2018-07-12T08:38:16.261Z,3.20
2018-07-12T08:40:44.739Z,3.67
2018-07-12T08:43:13.425Z,2.47
2018-07-12T08:45:42.093Z,3.10
2018-07-12T08:48:10.562Z,3.07
2018-07-12T08:50:39.011Z,3.00
2018-07-12T08:53:08.716Z,4.20
2018-07-12T08:55:37.156Z,2.20
2018-07-12T08:58:05.651Z,3.23
2018-07-12T09:00:34.103Z,3.20
2018-07-12T09:03:02.603Z,2.73
2018-07-12T09:05:31.031Z,3.27
2018-07-12T09:07:59.536Z,2.77
2018-07-12T09:10:27.955Z,3.37
2018-07-12T09:12:56.399Z,2.97
2018-07-12T09:15:24.831Z,3.00
2018-07-12T09:17:53.284Z,2.63
2018-07-12T09:20:21.707Z,2.10
2018-07-12T09:22:50.180Z,2.00
2018-07-12T09:25:18.649Z,3.60
2018-07-12T09:27:47.099Z,2.50
2018-07-12T09:30:15.721Z,2.93
2018-07-12T09:32:44.163Z,2.57
2018-07-12T09:35:12.617Z,2.27
2018-07-12T09:37:41.040Z,2.43
2018-07-12T09:40:09.511Z,1.93
2018-07-12T09:42:37.944Z,3.40
2018-07-12T09:45:06.413Z,2.43
2018-07-12T09:47:34.879Z,2.90
2018-07-12T09:50:03.363Z,2.30
2018-07-12T09:52:31.796Z,2.90
2018-07-12T09:55:00.530Z,6.03
2018-07-12T09:57:40.311Z,2.13
2018-07-12T10:00:08.833Z,2.90
2018-07-12T10:02:42.463Z,2.97
2018-07-12T10:05:16.386Z,3.50
2018-07-12T10:07:55.003Z,2.13
2018-07-12T10:10:29.714Z,2.50
2018-07-12T10:13:03.764Z,2.83
2018-07-12T10:15:37.460Z,3.10
2018-07-12T10:18:11.348Z,3.10
2018-07-12T10:20:39.798Z,3.53
2018-07-12T10:23:08.206Z,3.53
2018-07-12T10:25:36.647Z,5.80
2018-07-12T10:28:05.131Z,2.83
2018-07-12T10:30:33.582Z,5.13
2018-07-12T10:33:02.147Z,3.33
2018-07-12T10:35:30.587Z,2.50
2018-07-12T10:37:59.004Z,3.13
2018-07-12T10:40:27.474Z,2.90
2018-07-12T10:42:56.008Z,3.40
2018-07-12T10:45:25.089Z,4.70
2018-07-12T10:47:54.625Z,3.53
2018-07-12T10:50:23.089Z,3.27
2018-07-12T10:52:51.512Z,2.43
2018-07-12T10:55:19.654Z,4.97
2018-07-12T10:57:48.095Z,3.07
2018-07-12T11:00:16.549Z,2.90
2018-07-12T11:02:45.126Z,3.20
2018-07-12T11:05:13.555Z,2.80
2018-07-12T11:07:42.051Z,2.80
2018-07-12T11:10:10.482Z,2.30
2018-07-12T11:12:38.928Z,2.50
2018-07-12T11:15:07.378Z,3.10
2018-07-12T11:17:35.815Z,2.70
2018-07-12T11:20:04.520Z,3.70
2018-07-12T11:22:33.000Z,3.03
2018-07-12T11:25:01.424Z,3.00
2018-07-12T11:27:29.879Z,2.60
2018-07-12T11:29:59.360Z,2.90
2018-07-12T11:32:27.811Z,2.90
2018-07-12T11:34:56.263Z,2.93
2018-07-12T11:37:26.663Z,5.00
2018-07-12T11:39:55.096Z,4.03
2018-07-12T11:42:23.784Z,2.50
2018-07-12T11:44:52.251Z,3.43
2018-07-12T11:47:21.116Z,3.20
2018-07-12T11:49:49.535Z,2.93
2018-07-12T11:52:18.286Z,2.73
2018-07-12T11:54:47.052Z,3.10
2018-07-12T11:57:15.508Z,2.67
2018-07-12T11:59:43.935Z,4.23
2018-07-12T12:02:12.400Z,3.47
2018-07-12T12:04:40.815Z,3.40
2018-07-12T12:07:09.689Z,3.37
2018-07-12T12:09:38.247Z,3.43
2018-07-12T12:12:06.733Z,2.90
2018-07-12T12:14:35.361Z,2.93
2018-07-12T12:17:03.851Z,3.60
2018-07-12T12:19:32.384Z,2.73
2018-07-12T12:22:01.094Z,3.33
2018-07-12T12:24:29.538Z,2.73
2018-07-12T12:26:57.991Z,2.70
2018-07-12T12:29:26.408Z,3.60
2018-07-12T12:31:54.535Z,2.90
2018-07-12T12:34:22.982Z,2.70
2018-07-12T12:36:51.407Z,3.43
2018-07-12T12:39:19.851Z,2.73
2018-07-12T12:41:48.445Z,2.70
2018-07-12T12:44:16.884Z,3.37
2018-07-12T12:46:45.320Z,2.83
2018-07-12T12:49:13.772Z,3.00
2018-07-12T12:51:42.247Z,3.37
2018-07-12T12:54:10.697Z,2.73
2018-07-12T12:56:39.136Z,3.70
2018-07-12T12:59:07.591Z,3.40
2018-07-12T13:01:36.028Z,3.70
2018-07-12T13:04:04.532Z,3.40
2018-07-12T13:06:32.973Z,3.43
2018-07-12T13:09:01.435Z,3.43
2018-07-12T13:11:29.859Z,3.30
2018-07-12T13:13:58.316Z,2.93
2018-07-12T13:16:26.744Z,2.80
2018-07-12T13:18:55.207Z,3.30
2018-07-12T13:21:23.645Z,2.63
2018-07-12T13:23:52.096Z,4.10
2018-07-12T13:26:20.535Z,2.30
2018-07-12T13:28:49.011Z,6.33
2018-07-12T13:31:17.475Z,2.70
2018-07-12T13:33:47.148Z,2.57
2018-07-12T13:36:15.640Z,3.10
2018-07-12T13:38:44.089Z,2.60
2018-07-12T13:41:12.523Z,2.50
2018-07-12T13:43:40.967Z,2.80
2018-07-12T13:46:09.416Z,2.70
2018-07-12T13:48:37.880Z,2.70
2018-07-12T13:51:06.407Z,2.97
2018-07-12T13:53:34.870Z,1.83
2018-07-12T13:56:03.336Z,2.70
2018-07-12T13:58:31.801Z,2.57
2018-07-12T14:01:00.296Z,2.87
2018-07-12T14:03:28.727Z,2.50
2018-07-12T14:05:57.172Z,2.70
2018-07-12T14:08:26.442Z,2.90
2018-07-12T14:10:54.859Z,2.80
2018-07-12T14:13:23.315Z,2.27
2018-07-12T14:15:51.774Z,2.83
2018-07-12T14:18:20.189Z,2.37
2018-07-12T14:20:48.635Z,3.20
2018-07-12T14:23:17.072Z,3.50
2018-07-12T14:25:45.518Z,3.20
2018-07-12T14:28:13.935Z,3.37
2018-07-12T14:30:42.396Z,2.77
2018-07-12T14:33:10.823Z,3.03
2018-07-12T14:35:39.268Z,4.27
2018-07-12T14:38:07.951Z,2.57
2018-07-12T14:40:36.414Z,2.70
2018-07-12T14:43:04.857Z,3.30
2018-07-12T14:45:33.299Z,2.57
2018-07-12T14:48:01.740Z,2.50
2018-07-12T14:50:30.185Z,3.07
2018-07-12T14:52:58.615Z,2.73
2018-07-12T14:55:30.142Z,3.53
2018-07-12T14:57:58.577Z,3.73
2018-07-12T15:00:27.023Z,2.30
2018-07-12T15:02:55.557Z,2.50
2018-07-12T15:05:23.915Z,2.80
2018-07-12T15:07:52.348Z,2.57
2018-07-12T15:10:20.816Z,2.70
2018-07-12T15:12:49.431Z,2.63
2018-07-12T15:15:18.013Z,3.37
2018-07-12T15:17:46.468Z,2.60
2018-07-12T15:20:14.897Z,2.80
2018-07-12T15:22:43.340Z,3.27
2018-07-12T15:25:11.983Z,2.70
2018-07-12T15:27:40.446Z,2.80
2018-07-12T15:30:08.894Z,2.87
2018-07-12T15:32:37.348Z,3.23
2018-07-12T15:35:06.014Z,2.93
2018-07-12T15:37:34.473Z,4.73
2018-07-12T15:40:02.940Z,3.80
2018-07-12T15:42:31.403Z,3.10
2018-07-12T15:44:59.831Z,3.27
2018-07-12T15:47:28.279Z,3.23
2018-07-12T15:49:56.862Z,3.03
2018-07-12T15:52:25.045Z,3.20
2018-07-12T15:54:53.497Z,2.63
2018-07-12T15:57:22.069Z,3.00
2018-07-12T15:59:50.549Z,3.10
2018-07-12T16:02:19.016Z,3.17
2018-07-12T16:04:47.445Z,3.83
2018-07-12T16:07:15.943Z,2.67
2018-07-12T16:09:44.399Z,2.53
2018-07-12T16:12:12.820Z,3.40
2018-07-12T16:14:41.255Z,2.47
2018-07-12T16:17:10.286Z,4.20
2018-07-12T16:19:38.894Z,2.67
2018-07-12T16:22:07.343Z,3.50
2018-07-12T16:24:35.955Z,3.13
2018-07-12T16:27:04.596Z,2.53
2018-07-12T16:29:33.037Z,3.47
2018-07-12T16:32:01.464Z,3.57
2018-07-12T16:34:29.919Z,2.97
2018-07-12T16:36:58.363Z,2.33
2018-07-12T16:39:26.819Z,2.87
2018-07-12T16:41:55.321Z,3.33
2018-07-12T16:44:23.776Z,3.10
2018-07-12T16:46:52.248Z,4.57
2018-07-12T16:49:20.687Z,5.27
2018-07-12T16:51:49.223Z,3.90
2018-07-12T16:54:17.744Z,3.10
2018-07-12T16:56:46.163Z,3.63
2018-07-12T16:59:14.603Z,4.67
2018-07-12T17:01:43.019Z,6.20
2018-07-12T17:04:11.452Z,3.60
2018-07-12T17:06:39.931Z,3.87
2018-07-12T17:09:08.745Z,3.40
2018-07-12T17:11:37.191Z,3.40
2018-07-12T17:14:05.671Z,2.70
2018-07-12T17:16:34.127Z,3.00
2018-07-12T17:19:02.585Z,3.30
2018-07-12T17:21:31.052Z,4.60
2018-07-12T17:23:59.475Z,3.53
2018-07-12T17:26:27.926Z,3.40
2018-07-12T17:28:56.348Z,3.37
2018-07-12T17:31:24.788Z,3.70
2018-07-12T17:33:53.228Z,2.63
2018-07-12T17:36:21.677Z,4.30
2018-07-12T17:38:50.104Z,3.30
2018-07-12T17:41:18.588Z,4.40
2018-07-12T17:43:47.012Z,6.23
2018-07-12T17:46:15.459Z,4.53
2018-07-12T17:48:43.884Z,4.07
2018-07-12T17:51:12.351Z,5.00
2018-07-12T17:53:40.779Z,6.77
2018-07-12T17:56:09.262Z,4.50
2018-07-12T17:58:37.746Z,5.27
2018-07-12T18:01:06.229Z,4.80
2018-07-12T18:03:34.680Z,4.83
2018-07-12T18:06:03.134Z,5.33
2018-07-12T18:08:31.606Z,6.00
2018-07-12T18:11:00.020Z,5.97
2018-07-12T18:13:28.469Z,7.33
2018-07-12T18:15:56.971Z,6.13
2018-07-12T18:18:25.352Z,6.03
2018-07-12T18:20:53.884Z,8.83
2018-07-12T18:23:22.310Z,5.27
2018-07-12T18:25:50.840Z,5.80
2018-07-12T18:28:19.320Z,6.10
2018-07-12T18:30:47.776Z,5.80
2018-07-12T18:33:16.215Z,6.83
2018-07-12T18:35:44.658Z,6.80
2018-07-12T18:38:13.128Z,5.90
2018-07-12T18:40:41.549Z,7.03
2018-07-12T18:43:10.020Z,6.47
2018-07-12T18:45:38.456Z,7.20
2018-07-12T18:48:06.870Z,6.63
2018-07-12T18:50:35.308Z,6.60
2018-07-12T18:53:03.732Z,6.67
2018-07-12T18:55:32.190Z,8.30
2018-07-12T18:58:00.619Z,6.80
2018-07-12T19:00:29.071Z,6.53
2018-07-12T19:02:57.508Z,6.63
2018-07-12T19:05:25.967Z,6.93
2018-07-12T19:07:54.399Z,9.50
2018-07-12T19:10:22.854Z,10.13
2018-07-12T19:12:51.279Z,5.90
2018-07-12T19:15:19.740Z,6.67
2018-07-12T19:17:48.166Z,6.80
2018-07-12T19:20:16.615Z,6.83
2018-07-12T19:22:45.044Z,7.77
2018-07-12T19:25:13.496Z,8.30
2018-07-12T19:27:41.917Z,8.07
2018-07-12T19:30:10.491Z,9.80
2018-07-12T19:32:38.895Z,8.20
2018-07-12T19:35:07.463Z,7.03
2018-07-12T19:37:35.780Z,7.23
2018-07-12T19:40:04.345Z,7.53
2018-07-12T19:42:32.762Z,6.63
2018-07-12T19:45:01.206Z,9.40
2018-07-12T19:47:29.663Z,9.13
2018-07-12T19:49:58.091Z,7.77
2018-07-12T19:52:26.536Z,8.50
2018-07-12T19:54:54.964Z,7.47
2018-07-12T19:57:23.442Z,6.60
2018-07-12T19:59:51.871Z,7.70
2018-07-12T20:02:20.339Z,8.40
2018-07-12T20:04:48.775Z,8.17
2018-07-12T20:07:17.244Z,7.27
2018-07-12T20:09:45.735Z,8.40
2018-07-12T20:12:14.192Z,6.37
2018-07-12T20:14:42.605Z,8.47
2018-07-12T20:17:11.058Z,7.53
2018-07-12T20:19:39.487Z,7.60
2018-07-12T20:22:07.955Z,8.70
2018-07-12T20:24:36.421Z,8.07
2018-07-12T20:27:04.858Z,7.53
2018-07-12T20:29:33.328Z,8.03
2018-07-12T20:32:01.804Z,7.67
2018-07-12T20:34:30.272Z,7.60
2018-07-12T20:36:58.728Z,10.43
2018-07-12T20:39:27.163Z,8.33
2018-07-12T20:41:55.593Z,9.17
2018-07-12T20:44:24.059Z,6.80
2018-07-12T20:46:52.520Z,7.10
2018-07-12T20:49:20.958Z,7.70
2018-07-12T20:51:49.387Z,7.90
2018-07-12T20:54:18.800Z,8.43
2018-07-12T20:56:47.220Z,7.77
2018-07-12T20:59:15.686Z,7.07
2018-07-12T21:01:44.124Z,7.43
2018-07-12T21:04:12.560Z,7.87
2018-07-12T21:06:40.995Z,6.83
2018-07-12T21:09:10.312Z,7.50
2018-07-12T21:11:38.752Z,6.97
2018-07-12T21:14:07.226Z,7.30
2018-07-12T21:16:35.647Z,7.40
2018-07-12T21:19:04.087Z,8.20
2018-07-12T21:21:32.546Z,8.20
2018-07-12T21:24:00.973Z,7.07
2018-07-12T21:26:29.424Z,8.80
2018-07-12T21:28:58.004Z,7.90
2018-07-12T21:31:26.451Z,6.23
2018-07-12T21:33:54.880Z,9.00
2018-07-12T21:36:23.345Z,7.80
2018-07-12T21:38:51.754Z,7.07
2018-07-12T21:41:20.229Z,7.10
2018-07-12T21:43:48.671Z,7.77
2018-07-12T21:46:17.102Z,7.20
2018-07-12T21:48:45.525Z,7.87
2018-07-12T21:51:13.964Z,6.43
2018-07-12T21:53:42.384Z,8.30
2018-07-12T21:56:10.815Z,7.07
2018-07-12T21:58:39.232Z,6.53
2018-07-12T22:01:07.682Z,6.90
2018-07-12T22:03:36.108Z,8.23
2018-07-12T22:06:04.626Z,9.33
2018-07-12T22:08:33.061Z,7.40
2018-07-12T22:11:04.747Z,8.53
2018-07-12T22:13:34.425Z,10.30
2018-07-12T22:16:02.884Z,8.40
2018-07-12T22:18:31.342Z,6.80
2018-07-12T22:20:59.779Z,7.97
2018-07-12T22:23:28.223Z,8.73
2018-07-12T22:25:56.663Z,7.77
2018-07-12T22:28:25.196Z,8.50
2018-07-12T22:30:53.623Z,7.40
2018-07-12T22:33:22.072Z,6.47
2018-07-12T22:35:50.501Z,7.67
2018-07-12T22:38:18.970Z,6.90
2018-07-12T22:40:47.395Z,6.27
2018-07-12T22:43:15.840Z,7.23
2018-07-12T22:45:44.277Z,6.10
2018-07-12T22:48:12.787Z,9.07
2018-07-12T22:50:41.215Z,6.53
2018-07-12T22:53:09.662Z,6.73
2018-07-12T22:55:38.096Z,8.83
2018-07-12T22:58:06.552Z,7.17
2018-07-12T23:00:34.990Z,7.87
2018-07-12T23:03:03.456Z,6.23
2018-07-12T23:05:31.936Z,6.60
2018-07-12T23:08:00.359Z,8.10
2018-07-12T23:10:28.807Z,6.80
2018-07-12T23:12:57.231Z,8.17
2018-07-12T23:15:26.500Z,8.00
2018-07-12T23:17:54.927Z,8.13
2018-07-12T23:20:23.394Z,7.77
2018-07-12T23:22:51.824Z,7.80
2018-07-12T23:25:20.292Z,6.97
2018-07-12T23:27:48.715Z,7.63
2018-07-12T23:30:17.195Z,6.77
2018-07-12T23:32:45.616Z,9.10
2018-07-12T23:35:14.079Z,6.30
2018-07-12T23:37:42.596Z,7.77
2018-07-12T23:40:11.031Z,8.50
2018-07-12T23:42:39.480Z,6.27
2018-07-12T23:45:07.931Z,6.33
2018-07-12T23:47:36.347Z,7.33
2018-07-12T23:50:04.848Z,7.00
2018-07-12T23:52:33.305Z,15.53
2018-07-12T23:55:01.751Z,11.67
2018-07-12T23:57:30.171Z,7.60
2018-07-12T23:59:58.589Z,12.70
